Terminal Aerodrome Forecast
Issued by NWS

Home | Current Version | Previous Version | Text Only | Print | Product List | Glossary On
Versions: 1 2 3 4 5 6 7 8 9 10 11 12 13 14 15 16 17 18 19 20 21 22 23 24 25 26 27 28 29 30 31
000
FTUS44 KLIX 210527
TAFHUM
TAF
KHUM 210527Z 2106/2206 34005KT P6SM BKN200
     FM211400 05009KT P6SM BKN250
     FM211800 09011KT P6SM BKN250
     FM220000 13009KT P6SM BKN250
     FM220500 14005KT P6SM BKN250=

USA.gov is the U.S. government's official web portal to all federal, state and local government web resources and services.